Time;durP1;ratioP1;P1;durP2;ratioP2;P2;SDS_P1;SDS_P2;PMS_P1;PMS_P2;Temp;Humidity;BMP_temperature;BMP_pressure;BME280_temperature;BME280_humidity;BME280_pressure;Samples;Min_cycle;Max_cycle;Signal;HPM_P1;HPM_P2
2023/07/15 00:03:19;;;;;;;2.88;1.35;;;;;;;23.62;39.85;100322.31;16114103;19;131614;-56
2023/07/15 00:08:43;;;;;;;2.45;1.48;;;;;;;23.62;39.97;100332.66;16114930;19;131393;-50
2023/07/15 00:14:17;;;;;;;2.58;1.63;;;;;;;23.62;39.87;100327.91;16116510;19;131207;-54
2023/07/15 00:19:39;;;;;;;3.83;1.30;;;;;;;23.60;40.01;100330.16;16118723;19;129604;-54
2023/07/15 00:25:05;;;;;;;4.32;1.60;;;;;;;23.60;39.71;100334.91;16116709;19;130801;-55
2023/07/15 00:30:27;;;;;;;2.17;1.52;;;;;;;23.60;39.86;100332.09;16118120;19;131382;-53
2023/07/15 00:35:49;;;;;;;3.47;1.40;;;;;;;23.60;39.95;100334.91;16117050;19;131236;-55
2023/07/15 00:41:20;;;;;;;3.03;1.42;;;;;;;23.59;39.80;100331.28;16114407;19;130003;-60
2023/07/15 00:47:12;;;;;;;2.85;1.33;;;;;;;23.58;39.60;100334.31;16110615;19;130848;-51
2023/07/15 00:52:35;;;;;;;11.52;1.90;;;;;;;23.57;39.96;100344.66;16106276;19;129945;-51
2023/07/15 00:57:57;;;;;;;2.53;1.45;;;;;;;23.63;40.05;100340.72;16115315;19;130214;-53
2023/07/15 01:03:20;;;;;;;3.67;1.60;;;;;;;23.69;40.01;100343.47;16112242;19;131083;-52
2023/07/15 01:08:42;;;;;;;9.30;1.60;;;;;;;23.74;39.86;100343.44;16110822;19;131725;-53
2023/07/15 01:14:05;;;;;;;4.93;1.50;;;;;;;23.78;40.19;100350.06;16115604;19;130926;-51
2023/07/15 01:19:27;;;;;;;3.58;1.58;;;;;;;23.80;39.90;100350.59;16110788;19;131256;-50
2023/07/15 01:24:49;;;;;;;3.35;1.48;;;;;;;23.79;40.01;100357.31;16107724;19;131228;-51
2023/07/15 01:30:11;;;;;;;5.43;1.23;;;;;;;23.75;40.27;100359.06;16109949;19;130731;-51
2023/07/15 01:35:33;;;;;;;3.80;1.40;;;;;;;23.70;40.14;100361.91;16106152;19;131189;-54
2023/07/15 01:40:55;;;;;;;5.28;1.67;;;;;;;23.69;40.10;100365.81;16113426;19;133718;-47
2023/07/15 01:46:17;;;;;;;3.00;1.20;;;;;;;23.65;39.97;100360.81;16104487;19;130090;-51
2023/07/15 01:51:39;;;;;;;4.05;1.40;;;;;;;23.64;39.92;100372.28;16109031;19;130972;-51
2023/07/15 01:57:01;;;;;;;2.58;1.50;;;;;;;23.62;39.83;100375.38;16109875;19;130243;-53
2023/07/15 02:02:24;;;;;;;2.42;1.17;;;;;;;23.61;40.17;100376.50;16108969;19;129586;-53
2023/07/15 02:07:46;;;;;;;3.70;1.50;;;;;;;23.60;40.20;100372.03;16106892;19;129590;-52
2023/07/15 02:13:11;;;;;;;3.33;1.40;;;;;;;23.58;40.29;100368.72;16106201;19;130607;-50
2023/07/15 02:18:33;;;;;;;2.70;1.30;;;;;;;23.58;40.29;100367.81;16106571;19;131167;-52
2023/07/15 02:23:55;;;;;;;2.72;1.30;;;;;;;23.56;40.23;100361.72;16110014;19;134420;-51
2023/07/15 02:29:17;;;;;;;4.93;1.10;;;;;;;23.57;40.23;100364.22;16103469;19;129940;-50
2023/07/15 02:34:41;;;;;;;2.90;1.20;;;;;;;23.57;40.20;100363.41;16104995;19;131226;-52
2023/07/15 02:40:04;;;;;;;2.27;1.30;;;;;;;23.55;40.10;100352.50;16105234;19;129581;-54
2023/07/15 02:45:27;;;;;;;2.60;1.38;;;;;;;23.54;40.49;100359.22;16098575;19;132167;-51
2023/07/15 02:50:52;;;;;;;2.55;1.40;;;;;;;23.54;40.49;100350.84;16103906;19;130129;-54
2023/07/15 02:56:14;;;;;;;2.05;1.30;;;;;;;23.53;40.26;100362.31;16098938;19;129489;-52
2023/07/15 03:01:37;;;;;;;1.90;1.10;;;;;;;23.52;40.51;100347.50;16100485;19;131542;-49
2023/07/15 03:06:59;;;;;;;1.52;1.05;;;;;;;23.51;40.37;100343.03;16098894;19;129643;-51
2023/07/15 03:12:21;;;;;;;3.38;1.35;;;;;;;23.51;40.25;100359.78;16100184;19;130336;-55
2023/07/15 03:17:43;;;;;;;2.42;1.20;;;;;;;23.50;40.28;100352.56;16102796;19;130951;-51
2023/07/15 03:23:06;;;;;;;2.00;1.33;;;;;;;23.49;40.34;100356.50;16099575;19;130494;-52
2023/07/15 03:28:28;;;;;;;2.08;1.27;;;;;;;23.49;40.46;100356.50;16101736;19;129722;-56
2023/07/15 03:33:51;;;;;;;2.40;1.30;;;;;;;23.48;40.46;100357.63;16098525;19;130842;-54
2023/07/15 03:39:13;;;;;;;2.50;1.40;;;;;;;23.46;40.43;100360.69;16100533;19;129517;-49
2023/07/15 03:44:35;;;;;;;1.65;1.10;;;;;;;23.46;40.56;100363.47;16096198;19;131678;-51
2023/07/15 03:49:58;;;;;;;3.15;1.13;;;;;;;23.45;40.40;100355.41;16114133;19;129803;-54
2023/07/15 03:55:20;;;;;;;2.95;1.10;;;;;;;23.44;40.55;100351.78;16120638;19;130763;-54
2023/07/15 04:00:42;;;;;;;2.92;1.13;;;;;;;23.45;40.42;100360.97;16122087;19;129581;-53
2023/07/15 04:06:04;;;;;;;5.00;1.17;;;;;;;23.43;40.40;100349.28;16119145;19;129837;-53
2023/07/15 04:11:26;;;;;;;1.42;1.27;;;;;;;23.41;40.95;100346.78;16116962;19;130614;-54
2023/07/15 04:16:48;;;;;;;1.83;1.10;;;;;;;23.40;40.29;100349.84;16116593;19;129830;-55
2023/07/15 04:22:11;;;;;;;3.10;1.20;;;;;;;23.40;40.64;100361.00;16111638;19;130687;-52
2023/07/15 04:27:34;;;;;;;2.00;1.08;;;;;;;23.39;40.52;100362.13;16115522;19;130007;-51
2023/07/15 04:32:56;;;;;;;2.60;1.25;;;;;;;23.39;40.51;100365.78;16113795;19;129959;-49
2023/07/15 04:38:21;;;;;;;1.60;1.08;;;;;;;23.39;40.83;100374.16;16113714;19;131515;-52
2023/07/15 04:43:43;;;;;;;3.35;1.05;;;;;;;23.37;40.74;100368.03;16114771;19;130481;-51
2023/07/15 04:49:05;;;;;;;2.15;1.33;;;;;;;23.37;40.68;100370.81;16111470;19;130615;-55
2023/07/15 04:54:27;;;;;;;2.42;1.25;;;;;;;23.37;40.79;100375.59;16112497;19;130583;-52
2023/07/15 04:59:51;;;;;;;1.85;1.02;;;;;;;23.35;40.92;100368.31;16110517;19;130270;-54
2023/07/15 05:05:14;;;;;;;1.92;1.30;;;;;;;23.36;40.38;100374.72;16113188;19;131522;-51
2023/07/15 05:10:36;;;;;;;1.85;1.05;;;;;;;23.37;40.64;100372.78;16112723;19;130829;-50
2023/07/15 05:15:58;;;;;;;2.05;1.20;;;;;;;23.35;40.79;100375.84;16113126;19;131046;-50
2023/07/15 05:21:20;;;;;;;2.15;1.10;;;;;;;23.35;40.87;100381.44;16105439;19;129959;-51
2023/07/15 05:26:42;;;;;;;2.10;0.90;;;;;;;23.34;40.90;100383.41;16108862;19;130848;-50
2023/07/15 05:32:05;;;;;;;1.85;0.90;;;;;;;23.33;40.82;100390.13;16110683;19;129752;-53
2023/07/15 05:37:27;;;;;;;2.00;1.13;;;;;;;23.34;40.48;100386.19;16108293;19;130628;-52
2023/07/15 05:42:49;;;;;;;1.20;1.10;;;;;;;23.34;41.19;100394.56;16110232;19;130289;-54
2023/07/15 05:48:11;;;;;;;1.27;1.08;;;;;;;23.33;40.92;100409.66;16113190;19;130150;-51
2023/07/15 05:53:33;;;;;;;1.67;1.15;;;;;;;23.34;40.89;100400.16;16109797;19;129910;-50
2023/07/15 05:58:55;;;;;;;1.38;1.10;;;;;;;23.33;40.87;100404.06;16111625;19;130222;-53
2023/07/15 06:04:17;;;;;;;1.50;1.00;;;;;;;23.33;41.22;100401.28;16111945;19;129793;-52
2023/07/15 06:09:39;;;;;;;1.20;1.00;;;;;;;23.33;40.79;100398.47;16107273;19;131553;-53
2023/07/15 06:15:01;;;;;;;1.90;1.27;;;;;;;23.33;40.71;100409.66;16106752;19;131060;-53
2023/07/15 06:20:23;;;;;;;1.48;1.08;;;;;;;23.33;40.83;100406.84;16108436;19;130955;-51
2023/07/15 06:25:45;;;;;;;1.02;0.90;;;;;;;23.32;40.81;100402.41;16105991;19;130914;-54
2023/07/15 06:31:07;;;;;;;1.65;1.10;;;;;;;23.33;40.83;100394.84;16101851;19;129811;-53
2023/07/15 06:36:30;;;;;;;3.08;1.23;;;;;;;23.33;40.89;100406.84;16105242;19;132597;-54
2023/07/15 06:41:52;;;;;;;1.45;1.20;;;;;;;23.33;40.54;100408.78;16106432;19;130858;-53
2023/07/15 06:47:13;;;;;;;1.75;1.08;;;;;;;23.33;40.90;100395.69;16103142;19;131352;-55
2023/07/15 06:52:35;;;;;;;1.77;1.30;;;;;;;23.33;40.80;100387.31;16103481;19;131176;-54
2023/07/15 06:57:57;;;;;;;1.55;1.15;;;;;;;23.33;40.79;100390.13;16106993;19;130345;-55
2023/07/15 07:03:19;;;;;;;2.38;1.08;;;;;;;23.33;40.97;100406.00;16103472;19;131004;-53
2023/07/15 07:08:41;;;;;;;2.42;1.08;;;;;;;23.33;40.74;100404.06;16107172;19;129551;-54
2023/07/15 07:14:04;;;;;;;3.92;1.38;;;;;;;23.35;40.78;100403.75;16102962;19;130576;-52
2023/07/15 07:19:26;;;;;;;3.90;1.15;;;;;;;23.42;40.92;100403.44;16103926;19;130243;-51
2023/07/15 07:24:49;;;;;;;4.40;1.50;;;;;;;23.49;40.75;100392.78;16124904;19;129718;-52
2023/07/15 07:30:11;;;;;;;6.22;1.00;;;;;;;23.53;40.70;100407.81;16120035;19;129498;-52
2023/07/15 07:35:33;;;;;;;3.22;1.27;;;;;;;23.55;40.65;100399.97;16125915;19;129603;-49
2023/07/15 07:41:09;;;;;;;2.88;1.55;;;;;;;23.66;40.99;100435.09;16122671;19;130968;-52
2023/07/15 07:46:32;;;;;;;2.28;1.10;;;;;;;23.64;41.19;100442.91;16118952;19;129475;-51
2023/07/15 07:51:54;;;;;;;2.65;1.17;;;;;;;23.67;40.75;100424.75;16120584;19;129588;-51
2023/07/15 07:57:16;;;;;;;6.07;1.10;;;;;;;23.72;40.88;100427.50;16120273;19;129676;-51
2023/07/15 08:02:38;;;;;;;2.72;1.15;;;;;;;23.83;40.60;100414.28;16121570;19;129953;-52
2023/07/15 08:08:00;;;;;;;4.78;0.98;;;;;;;23.87;41.23;100429.31;16115618;19;131877;-52
2023/07/15 08:13:22;;;;;;;3.88;1.27;;;;;;;23.85;41.21;100437.16;16119281;19;130453;-53
2023/07/15 08:18:44;;;;;;;3.53;1.00;;;;;;;23.86;41.10;100437.97;16117842;19;129943;-53
2023/07/15 08:24:06;;;;;;;5.50;1.10;;;;;;;23.83;41.48;100453.38;16120489;19;130511;-54
2023/07/15 08:29:28;;;;;;;4.65;1.30;;;;;;;23.81;41.64;100452.84;16117514;19;130475;-52
2023/07/15 08:35:04;;;;;;;4.50;1.27;;;;;;;23.78;41.78;100454.25;16119780;19;133158;-52
2023/07/15 08:40:26;;;;;;;5.78;1.20;;;;;;;23.75;41.81;100465.19;16119934;19;129514;-54
2023/07/15 08:45:49;;;;;;;5.65;1.60;;;;;;;23.72;41.64;100462.97;16115513;19;129908;-51
2023/07/15 08:51:12;;;;;;;2.97;1.20;;;;;;;23.69;41.84;100477.50;16114831;19;130083;-53
2023/07/15 08:56:37;;;;;;;5.32;1.20;;;;;;;23.70;41.78;100482.81;16119416;19;134754;-50
2023/07/15 09:01:59;;;;;;;3.90;1.40;;;;;;;23.71;41.69;100461.31;16119206;19;129935;-53
2023/07/15 09:07:27;;;;;;;4.15;1.42;;;;;;;23.72;42.37;100480.56;16115295;19;130299;-47
2023/07/15 09:12:54;;;;;;;4.45;1.40;;;;;;;23.69;41.97;100480.31;16115753;19;129831;-51
2023/07/15 09:18:16;;;;;;;5.25;1.10;;;;;;;23.68;42.18;100498.19;16115776;19;130927;-52
2023/07/15 09:23:42;;;;;;;8.43;1.40;;;;;;;23.65;42.21;100511.59;16116438;19;130371;-50
2023/07/15 09:29:04;;;;;;;4.78;1.50;;;;;;;23.65;42.36;100527.53;16116318;19;129093;-52
2023/07/15 09:34:26;;;;;;;4.45;1.70;;;;;;;23.65;42.55;100539.53;16114216;19;130547;-51
2023/07/15 09:39:55;;;;;;;7.53;1.40;;;;;;;23.64;42.49;100543.44;16116366;19;130057;-47
2023/07/15 09:45:35;;;;;;;4.72;1.30;;;;;;;23.65;42.42;100521.97;16113529;19;130256;-53
2023/07/15 09:50:58;;;;;;;3.85;1.23;;;;;;;23.62;42.62;100505.78;16110810;19;130363;-53
2023/07/15 09:56:43;;;;;;;3.78;1.17;;;;;;;23.61;42.45;100504.94;16114904;19;130706;-49
2023/07/15 10:02:17;;;;;;;2.20;1.20;;;;;;;23.61;42.50;100493.78;16114166;19;130851;-50
2023/07/15 10:07:42;;;;;;;4.55;1.70;;;;;;;23.61;42.82;100493.78;16113820;19;129729;-47
2023/07/15 10:13:05;;;;;;;6.00;1.20;;;;;;;23.62;42.41;100494.59;16109395;19;130739;-49
2023/07/15 10:18:31;;;;;;;2.78;1.33;;;;;;;23.62;42.67;100489.88;16111747;19;129689;-48
2023/07/15 10:24:16;;;;;;;3.53;1.75;;;;;;;23.64;43.06;100487.59;16109566;19;130418;-50
2023/07/15 10:29:40;;;;;;;6.73;1.97;;;;;;;23.65;43.09;100489.25;16109999;19;130125;-53
2023/07/15 10:35:04;;;;;;;4.65;1.90;;;;;;;23.66;43.62;100487.31;16110988;19;130106;-50
2023/07/15 10:40:48;;;;;;;3.00;1.73;;;;;;;23.69;43.69;100488.69;16108882;19;130241;-48
2023/07/15 10:46:11;;;;;;;8.68;1.98;;;;;;;23.67;43.90;100486.19;16105299;19;130596;-48
2023/07/15 10:51:35;;;;;;;4.90;1.80;;;;;;;23.68;43.76;100498.19;16104138;19;131406;-52
2023/07/15 10:57:05;;;;;;;4.20;1.50;;;;;;;23.70;44.00;100507.13;16113979;19;130504;-52
2023/07/15 11:02:27;;;;;;;5.57;1.52;;;;;;;23.72;44.61;100513.25;16125359;19;129615;-51
2023/07/15 11:07:50;;;;;;;3.17;1.40;;;;;;;23.72;44.58;100504.88;16125204;19;130877;-49
2023/07/15 11:13:16;;;;;;;2.70;1.30;;;;;;;23.74;44.23;100497.03;16121954;19;129496;-49
2023/07/15 11:18:38;;;;;;;3.17;1.40;;;;;;;23.73;44.45;100490.59;16121518;19;130684;-52
2023/07/15 11:24:00;;;;;;;3.50;1.63;;;;;;;23.73;44.50;100467.44;16117842;19;130488;-52
2023/07/15 11:29:25;;;;;;;3.47;1.10;;;;;;;23.76;44.46;100461.25;16111963;19;132620;-51
2023/07/15 11:34:47;;;;;;;3.80;1.43;;;;;;;23.75;44.42;100451.22;16119548;19;131126;-48
2023/07/15 11:40:17;;;;;;;1.80;1.13;;;;;;;23.78;44.64;100471.03;16116091;19;131575;-54
2023/07/15 11:45:40;;;;;;;1.90;1.02;;;;;;;23.78;44.76;100448.69;16120032;19;129443;-47
2023/07/15 11:51:06;;;;;;;3.78;1.50;;;;;;;23.80;44.71;100440.84;16120436;19;130418;-50
2023/07/15 11:56:38;;;;;;;4.30;1.20;;;;;;;23.81;44.87;100447.25;16119086;19;131269;-48
2023/07/15 12:02:03;;;;;;;3.42;1.42;;;;;;;23.80;44.88;100442.78;16114553;19;131694;-49
2023/07/15 12:07:25;;;;;;;;;;;;;;;23.80;44.91;100440.84;16119424;19;131642;-49
2023/07/15 12:12:47;;;;;;;1.85;1.25;;;;;;;23.82;44.67;100438.56;16119534;19;129658;-51
2023/07/15 12:18:09;;;;;;;3.25;1.40;;;;;;;23.82;45.22;100432.16;16120190;19;134372;-50
2023/07/15 12:23:32;;;;;;;5.15;1.30;;;;;;;23.83;44.65;100433.81;16116992;19;130921;-51
2023/07/15 12:28:54;;;;;;;1.80;1.10;;;;;;;23.85;45.06;100436.31;16114722;19;129969;-52
2023/07/15 12:34:16;;;;;;;2.58;1.48;;;;;;;23.86;45.10;100438.81;16116821;19;129897;-49
2023/07/15 12:39:37;;;;;;;6.80;1.23;;;;;;;23.89;45.06;100427.03;16117715;19;129473;-46
2023/07/15 12:44:59;;;;;;;2.50;1.15;;;;;;;23.90;45.24;100450.25;16114089;19;130794;-50
2023/07/15 12:50:21;;;;;;;6.13;1.23;;;;;;;23.91;44.94;100443.53;16113370;19;130283;-46
2023/07/15 12:55:44;;;;;;;4.97;1.30;;;;;;;23.90;45.00;100425.09;16114301;19;131425;-51
2023/07/15 13:01:07;;;;;;;4.60;1.05;;;;;;;23.91;44.99;100423.97;16115420;19;130110;-52
2023/07/15 13:06:28;;;;;;;2.58;1.30;;;;;;;23.91;44.83;100412.81;16118626;19;131197;-51
2023/07/15 13:11:51;;;;;;;3.30;1.50;;;;;;;23.91;44.31;100419.22;16113105;19;130734;-52
2023/07/15 13:17:13;;;;;;;4.03;1.55;;;;;;;23.90;44.25;100395.19;16116463;19;130110;-53
2023/07/15 13:22:37;;;;;;;4.32;1.33;;;;;;;23.90;43.96;100378.44;16114562;19;129609;-51
2023/07/15 13:27:59;;;;;;;1.60;1.30;;;;;;;23.89;44.09;100365.59;16110691;19;130015;-51
2023/07/15 13:33:21;;;;;;;4.32;1.45;;;;;;;23.89;43.65;100365.59;16110044;19;130886;-50
2023/07/15 13:38:45;;;;;;;4.10;1.48;;;;;;;23.87;43.36;100359.50;16115925;19;130498;-50
2023/07/15 13:44:07;;;;;;;2.65;1.33;;;;;;;23.89;43.30;100371.16;16115491;19;129566;-52
2023/07/15 13:49:29;;;;;;;5.28;1.35;;;;;;;23.89;43.19;100368.38;16115441;19;129729;-50
2023/07/15 13:54:52;;;;;;;2.28;1.27;;;;;;;23.89;43.17;100365.59;16117237;19;131627;-53
2023/07/15 14:00:14;;;;;;;2.45;1.42;;;;;;;23.91;43.14;100380.09;16116034;19;129349;-46
2023/07/15 14:05:37;;;;;;;3.63;1.48;;;;;;;23.91;42.83;100374.50;16112771;19;130337;-50
2023/07/15 14:10:59;;;;;;;4.15;1.67;;;;;;;23.92;43.05;100375.34;16105102;19;130779;-48
2023/07/15 14:16:21;;;;;;;3.63;1.30;;;;;;;23.92;42.95;100372.56;16113469;19;130972;-47
2023/07/15 14:21:46;;;;;;;3.15;1.33;;;;;;;23.92;43.01;100369.78;16112144;19;129657;-49
2023/07/15 14:27:08;;;;;;;3.10;1.50;;;;;;;23.91;42.96;100349.38;16109735;19;129634;-49
2023/07/15 14:32:30;;;;;;;5.55;1.52;;;;;;;23.92;42.73;100356.63;16113529;19;133534;-51
2023/07/15 14:37:51;;;;;;;3.38;1.45;;;;;;;23.92;42.79;100386.53;16112539;19;129597;-49
2023/07/15 14:43:13;;;;;;;3.03;1.30;;;;;;;23.93;43.12;100355.50;16113197;19;129478;-52
2023/07/15 14:48:37;;;;;;;5.47;1.90;;;;;;;23.94;42.98;100350.72;16111063;19;129955;-50
2023/07/15 14:53:59;;;;;;;4.03;1.55;;;;;;;23.93;43.04;100358.28;16110464;19;129574;-52
2023/07/15 14:59:21;;;;;;;4.70;1.58;;;;;;;23.94;42.88;100365.53;16110187;19;129981;-49
2023/07/15 15:04:43;;;;;;;4.25;1.55;;;;;;;23.94;42.98;100348.78;16103851;19;130804;-52
2023/07/15 15:10:06;;;;;;;4.03;1.83;;;;;;;23.94;42.85;100333.97;16105774;19;130608;-48
2023/07/15 15:15:29;;;;;;;6.55;1.77;;;;;;;23.92;42.38;100337.06;16105574;19;129706;-51
2023/07/15 15:20:51;;;;;;;7.35;1.58;;;;;;;23.92;42.35;100325.88;16108741;19;130552;-50
2023/07/15 15:26:14;;;;;;;4.13;1.60;;;;;;;23.90;42.22;100358.88;16105497;19;131071;-50
2023/07/15 15:31:36;;;;;;;4.25;1.33;;;;;;;23.90;42.67;100389.59;16107524;19;130704;-50
2023/07/15 15:36:58;;;;;;;3.25;1.25;;;;;;;23.86;42.74;100424.88;16099169;19;129846;-54
2023/07/15 15:42:20;;;;;;;3.60;1.60;;;;;;;23.85;42.78;100414.81;16108112;19;131222;-50
2023/07/15 15:47:42;;;;;;;3.85;1.70;;;;;;;23.85;42.77;100406.44;16119193;19;129912;-46
2023/07/15 15:53:04;;;;;;;2.60;1.45;;;;;;;23.86;42.76;100449.16;16118531;19;129688;-50
2023/07/15 15:58:26;;;;;;;3.22;1.45;;;;;;;23.86;42.95;100433.25;16116406;19;130173;-50
2023/07/15 16:03:48;;;;;;;2.03;1.30;;;;;;;23.89;42.69;100406.66;16118246;19;131036;-52
2023/07/15 16:09:10;;;;;;;6.63;1.60;;;;;;;23.89;42.72;100410.28;16123215;19;130728;-50
2023/07/15 16:14:32;;;;;;;4.63;1.63;;;;;;;23.88;42.73;100419.78;16120487;19;130991;-52
2023/07/15 16:19:54;;;;;;;4.05;1.63;;;;;;;23.88;43.08;100425.38;16120823;19;130820;-54
2023/07/15 16:25:17;;;;;;;3.83;1.25;;;;;;;23.86;42.98;100438.81;16118395;19;130694;-49
2023/07/15 16:30:38;;;;;;;6.28;1.77;;;;;;;23.85;43.36;100427.94;16118693;19;130471;-52
2023/07/15 16:36:01;;;;;;;6.43;1.42;;;;;;;23.84;43.51;100434.66;16116504;19;129955;-50
2023/07/15 16:41:23;;;;;;;5.00;1.50;;;;;;;23.81;43.62;100413.72;16116461;19;130739;-49
2023/07/15 16:46:44;;;;;;;8.13;1.60;;;;;;;23.81;43.69;100416.53;16115925;19;131047;-53
2023/07/15 16:52:06;;;;;;;5.28;1.58;;;;;;;23.81;43.62;100458.41;16108069;19;131109;-49
2023/07/15 16:57:28;;;;;;;5.20;1.75;;;;;;;23.80;44.10;100435.25;16119773;19;130209;-49
2023/07/15 17:02:50;;;;;;;4.03;1.80;;;;;;;23.79;44.04;100404.81;16114197;19;131040;-51
2023/07/15 17:08:13;;;;;;;3.45;1.88;;;;;;;23.81;44.10;100419.31;16116671;19;129999;-53
2023/07/15 17:13:35;;;;;;;4.18;1.80;;;;;;;23.80;43.75;100440.00;16116781;19;133843;-49
2023/07/15 17:18:57;;;;;;;4.72;2.10;;;;;;;23.78;44.04;100453.41;16110844;19;129656;-52
2023/07/15 17:24:20;;;;;;;4.75;1.83;;;;;;;23.77;44.04;100471.28;16115995;19;131719;-52
2023/07/15 17:29:42;;;;;;;7.57;2.10;;;;;;;23.76;43.82;100427.72;16114864;19;131114;-52
2023/07/15 17:35:04;;;;;;;6.88;2.75;;;;;;;23.76;44.02;100436.09;16113099;19;129618;-51
2023/07/15 17:40:26;;;;;;;5.90;1.80;;;;;;;23.75;44.36;100465.19;16117386;19;129313;-51
2023/07/15 17:45:48;;;;;;;5.50;1.80;;;;;;;23.74;44.38;100469.94;16113446;19;130901;-49
2023/07/15 17:51:10;;;;;;;6.30;1.80;;;;;;;23.74;44.32;100485.88;16111262;19;130664;-50
2023/07/15 17:56:32;;;;;;;5.60;2.05;;;;;;;23.73;44.23;100503.75;16111172;19;130565;-50
2023/07/15 18:01:54;;;;;;;3.00;1.75;;;;;;;23.71;44.08;100504.03;16115649;19;131378;-51
2023/07/15 18:07:16;;;;;;;3.63;1.42;;;;;;;23.71;44.09;100492.84;16109726;19;131022;-52
2023/07/15 18:12:38;;;;;;;17.02;2.30;;;;;;;23.71;44.63;100483.66;16112029;19;129865;-51
2023/07/15 18:18:00;;;;;;;7.80;2.42;;;;;;;23.74;44.93;100508.22;16107658;19;129615;-49
2023/07/15 18:23:22;;;;;;;7.78;2.00;;;;;;;23.76;45.05;100486.38;16106050;19;130229;-49
2023/07/15 18:28:44;;;;;;;10.15;2.40;;;;;;;23.76;45.81;100514.31;16109844;19;130997;-49
2023/07/15 18:34:06;;;;;;;13.27;2.50;;;;;;;23.79;45.46;100516.53;16105659;19;130079;-45
2023/07/15 18:39:43;;;;;;;10.68;2.17;;;;;;;23.81;46.02;100511.50;16109142;19;129961;-46
2023/07/15 18:45:06;;;;;;;12.75;2.25;;;;;;;23.83;45.91;100514.84;16111760;19;129920;-54
2023/07/15 18:50:28;;;;;;;12.75;2.05;;;;;;;23.86;46.50;100521.78;16107050;19;129658;-50
2023/07/15 18:55:50;;;;;;;16.25;2.75;;;;;;;23.89;46.26;100536.00;16105037;19;132828;-49
2023/07/15 19:01:12;;;;;;;10.95;2.10;;;;;;;23.91;46.35;100524.53;16106724;19;129911;-51
2023/07/15 19:06:34;;;;;;;15.77;1.90;;;;;;;23.90;46.79;100522.88;16106054;19;131408;-54
2023/07/15 19:11:56;;;;;;;16.42;2.00;;;;;;;23.92;46.37;100532.63;16110091;19;130095;-51
2023/07/15 19:17:18;;;;;;;11.57;2.25;;;;;;;23.91;46.48;100552.47;16113734;19;131327;-46
2023/07/15 19:22:41;;;;;;;13.80;2.15;;;;;;;23.92;46.19;100571.75;16122778;19;129939;-49
2023/07/15 19:28:03;;;;;;;16.27;2.10;;;;;;;23.93;46.35;100567.81;16122123;19;131173;-47
2023/07/15 19:33:25;;;;;;;10.98;2.10;;;;;;;23.95;46.51;100578.69;16121083;19;130256;-49
2023/07/15 19:38:47;;;;;;;18.88;2.42;;;;;;;23.95;47.12;100582.34;16120910;19;131133;-50
2023/07/15 19:44:09;;;;;;;10.10;1.98;;;;;;;23.95;47.13;100587.94;16121984;19;130706;-50
2023/07/15 19:49:31;;;;;;;13.88;2.10;;;;;;;23.95;46.70;100587.94;16121848;19;130442;-51
2023/07/15 19:54:53;;;;;;;7.28;1.67;;;;;;;23.95;47.05;100596.31;16117307;19;130910;-48
2023/07/15 20:00:15;;;;;;;31.63;2.47;;;;;;;23.95;46.95;100601.91;16117087;19;130972;-49
2023/07/15 20:05:37;;;;;;;15.98;2.70;;;;;;;23.95;47.04;100610.28;16119309;19;130717;-48
2023/07/15 20:10:59;;;;;;;25.08;2.42;;;;;;;23.95;46.93;100607.47;16115935;19;130283;-51
2023/07/15 20:16:21;;;;;;;30.42;3.05;;;;;;;23.95;47.13;100627.03;16112559;19;130608;-53
2023/07/15 20:21:44;;;;;;;25.20;3.40;;;;;;;23.94;46.70;100627.31;16115098;19;130110;-52
2023/07/15 20:27:06;;;;;;;28.20;3.22;;;;;;;23.93;47.01;100645.22;16110497;19;131279;-49
2023/07/15 20:32:28;;;;;;;37.20;3.65;;;;;;;23.96;47.16;100651.06;16117628;19;130634;-57
2023/07/15 20:37:51;;;;;;;21.23;2.97;;;;;;;23.97;47.23;100651.88;16115255;19;129608;-55
2023/07/15 20:43:13;;;;;;;33.13;3.40;;;;;;;23.96;47.44;100659.44;16118519;19;131014;-52
2023/07/15 20:48:34;;;;;;;34.55;3.30;;;;;;;23.96;47.20;100680.94;16116748;19;131619;-51
2023/07/15 20:53:56;;;;;;;33.55;3.08;;;;;;;23.96;47.16;100690.19;16109520;19;131485;-53
2023/07/15 20:59:18;;;;;;;26.83;2.80;;;;;;;23.93;47.00;100690.75;16114480;19;130794;-51
2023/07/15 21:04:40;;;;;;;19.30;3.00;;;;;;;23.93;46.98;100713.09;16116014;19;129734;-53
2023/07/15 21:10:02;;;;;;;17.30;2.50;;;;;;;23.91;46.87;100718.13;16114585;19;129915;-53
2023/07/15 21:15:26;;;;;;;23.13;2.65;;;;;;;23.89;46.60;100723.16;16118894;19;129510;-50
2023/07/15 21:20:50;;;;;;;14.25;2.47;;;;;;;23.87;46.67;100717.06;16111015;19;129655;-50
2023/07/15 21:26:12;;;;;;;13.48;2.13;;;;;;;23.86;46.66;100723.78;16114764;19;129729;-54
2023/07/15 21:31:34;;;;;;;12.45;2.20;;;;;;;23.85;46.48;100736.06;16115887;19;130119;-52
2023/07/15 21:36:56;;;;;;;15.02;2.05;;;;;;;23.84;46.49;100739.13;16112716;19;132011;-52
2023/07/15 21:42:18;;;;;;;13.77;2.40;;;;;;;23.83;46.67;100746.69;16116137;19;130741;-51
2023/07/15 21:47:40;;;;;;;18.45;2.30;;;;;;;23.82;46.15;100756.19;16115428;19;130968;-50
2023/07/15 21:53:02;;;;;;;13.80;2.13;;;;;;;23.81;46.16;100774.06;16113769;19;131253;-53
2023/07/15 21:58:25;;;;;;;12.10;1.67;;;;;;;23.80;46.33;100775.19;16109840;19;131535;-52
2023/07/15 22:03:47;;;;;;;10.98;2.10;;;;;;;23.79;46.00;100774.38;16111597;19;130234;-51
2023/07/15 22:09:09;;;;;;;8.48;1.95;;;;;;;23.78;46.32;100783.00;16114744;19;131502;-47
2023/07/15 22:14:31;;;;;;;9.18;1.60;;;;;;;23.77;46.26;100781.34;16113417;19;129752;-50
2023/07/15 22:19:53;;;;;;;6.90;1.35;;;;;;;23.75;46.27;100784.41;16108814;19;131936;-46
2023/07/15 22:25:15;;;;;;;7.45;1.70;;;;;;;23.75;45.81;100783.59;16110156;19;132796;-47
2023/07/15 22:30:37;;;;;;;8.27;1.70;;;;;;;23.72;46.27;100787.78;16108352;19;130947;-48
2023/07/15 22:36:00;;;;;;;5.85;1.40;;;;;;;23.71;46.17;100800.06;16108657;19;129815;-46
2023/07/15 22:41:22;;;;;;;7.57;1.55;;;;;;;23.69;46.09;100802.34;16110123;19;130090;-49
2023/07/15 22:46:44;;;;;;;8.25;1.63;;;;;;;23.69;45.99;100801.47;16106852;19;129659;-47
2023/07/15 22:52:06;;;;;;;12.98;2.20;;;;;;;23.68;46.31;100802.59;16108501;19;129904;-50
2023/07/15 22:57:28;;;;;;;8.45;1.80;;;;;;;23.66;46.04;100808.47;16108927;19;130441;-47
2023/07/15 23:02:50;;;;;;;6.22;1.60;;;;;;;23.64;45.98;100805.94;16106556;19;129879;-46
2023/07/15 23:08:12;;;;;;;8.80;1.77;;;;;;;23.63;45.80;100815.44;16109848;19;132182;-49
2023/07/15 23:13:34;;;;;;;7.47;1.92;;;;;;;23.63;46.16;100831.38;16106549;19;130658;-48
2023/07/15 23:18:56;;;;;;;6.72;1.42;;;;;;;23.62;46.04;100829.72;16103445;19;130712;-47
2023/07/15 23:24:18;;;;;;;5.80;1.83;;;;;;;23.60;45.90;100838.38;16105043;19;130818;-51
2023/07/15 23:29:40;;;;;;;9.85;1.60;;;;;;;23.60;45.66;100841.16;16104888;19;129865;-46
2023/07/15 23:35:03;;;;;;;7.20;1.60;;;;;;;23.59;46.13;100852.59;16107417;19;131084;-48
2023/07/15 23:40:26;;;;;;;13.13;1.40;;;;;;;23.58;45.76;100857.38;16107321;19;130981;-49
2023/07/15 23:45:48;;;;;;;3.78;1.20;;;;;;;23.56;45.99;100853.16;16107297;19;130952;-47
2023/07/15 23:51:09;;;;;;;5.25;1.40;;;;;;;23.56;45.70;100851.19;16106173;19;130034;-47
2023/07/15 23:56:31;;;;;;;6.05;1.40;;;;;;;23.53;45.96;100851.75;16100907;19;130262;-49
